createdAt,value
2019-01-27T00:01:54.499Z,125.70
2019-01-27T00:04:25.113Z,117.63
2019-01-27T00:06:55.592Z,117.17
2019-01-27T00:09:26.162Z,122.33
2019-01-27T00:11:56.904Z,121.67
2019-01-27T00:14:27.398Z,120.53
2019-01-27T00:16:58.032Z,123.87
2019-01-27T00:19:28.431Z,121.63
2019-01-27T00:21:58.933Z,125.70
2019-01-27T00:24:29.509Z,119.73
2019-01-27T00:27:00.092Z,134.03
2019-01-27T00:29:30.623Z,126.37
2019-01-27T00:32:00.970Z,126.37
2019-01-27T00:34:31.502Z,126.50
2019-01-27T00:37:01.900Z,127.93
2019-01-27T00:39:32.683Z,130.43
2019-01-27T00:42:03.186Z,131.17
2019-01-27T00:44:33.741Z,130.30
2019-01-27T00:47:04.075Z,131.70
2019-01-27T00:49:34.491Z,134.60
2019-01-27T00:52:06.493Z,151.17
2019-01-27T00:54:37.252Z,168.93
2019-01-27T00:57:08.183Z,166.97
2019-01-27T00:59:38.995Z,176.23
2019-01-27T01:02:11.137Z,162.47
2019-01-27T01:04:42.845Z,134.07
2019-01-27T01:07:13.341Z,141.13
2019-01-27T01:09:43.910Z,150.60
2019-01-27T01:12:14.263Z,171.67
2019-01-27T01:14:44.947Z,152.80
2019-01-27T01:17:15.440Z,126.03
2019-01-27T01:19:46.006Z,125.70
2019-01-27T01:22:17.412Z,123.43
2019-01-27T01:24:47.931Z,112.50
2019-01-27T01:27:18.352Z,108.93
2019-01-27T01:29:49.201Z,110.63
2019-01-27T01:32:19.465Z,113.93
2019-01-27T01:34:49.739Z,110.97
2019-01-27T01:37:22.469Z,111.13
2019-01-27T01:39:52.785Z,109.77
2019-01-27T01:42:23.500Z,105.77
2019-01-27T01:44:54.049Z,108.70
2019-01-27T01:47:24.507Z,100.00
2019-01-27T01:49:54.806Z,115.77
2019-01-27T01:52:25.134Z,103.20
2019-01-27T01:54:55.580Z,103.40
2019-01-27T01:57:26.294Z,101.90
2019-01-27T01:59:56.751Z,98.17
2019-01-27T02:02:27.158Z,104.43
2019-01-27T02:04:57.494Z,96.83
2019-01-27T02:07:28.123Z,93.73
2019-01-27T02:09:58.832Z,98.33
2019-01-27T02:12:29.291Z,88.03
2019-01-27T02:14:59.821Z,102.83
2019-01-27T02:17:30.170Z,99.03
2019-01-27T02:20:00.984Z,97.43
2019-01-27T02:22:31.501Z,95.40
2019-01-27T02:25:02.301Z,96.93
2019-01-27T02:27:32.801Z,99.23
2019-01-27T02:30:03.330Z,103.93
2019-01-27T02:32:34.113Z,102.47
2019-01-27T02:35:04.664Z,95.83
2019-01-27T02:37:36.237Z,107.97
2019-01-27T02:40:07.066Z,95.70
2019-01-27T02:42:37.337Z,97.43
2019-01-27T02:45:08.007Z,105.63
2019-01-27T02:47:38.636Z,97.63
2019-01-27T02:50:09.250Z,100.13
2019-01-27T02:52:39.810Z,99.30
2019-01-27T02:55:10.436Z,94.03
2019-01-27T02:57:40.759Z,96.97
2019-01-27T03:00:12.099Z,85.47
2019-01-27T03:02:42.883Z,95.70
2019-01-27T03:05:34.829Z,94.87
2019-01-27T03:08:05.556Z,101.30
2019-01-27T03:10:35.806Z,97.60
2019-01-27T03:13:06.411Z,104.37
2019-01-27T03:15:36.881Z,87.20
2019-01-27T03:18:07.382Z,91.40
2019-01-27T03:20:37.885Z,87.87
2019-01-27T03:23:08.330Z,93.23
2019-01-27T03:25:38.758Z,99.27
2019-01-27T03:28:09.110Z,99.70
2019-01-27T03:30:39.410Z,117.90
2019-01-27T03:33:09.866Z,124.60
2019-01-27T03:35:40.532Z,114.07
2019-01-27T03:38:10.853Z,112.50
2019-01-27T03:40:41.482Z,124.00
2019-01-27T03:43:13.226Z,110.73
2019-01-27T03:45:43.649Z,113.47
2019-01-27T03:48:13.993Z,106.07
2019-01-27T03:50:44.460Z,113.67
2019-01-27T03:53:14.723Z,125.23
2019-01-27T03:55:45.313Z,118.53
2019-01-27T03:58:15.595Z,106.20
2019-01-27T04:00:46.130Z,126.40
2019-01-27T04:03:16.603Z,112.10
2019-01-27T04:05:47.136Z,105.83
2019-01-27T04:08:17.502Z,96.77
2019-01-27T04:10:47.973Z,93.43
2019-01-27T04:13:18.362Z,92.10
2019-01-27T04:15:49.376Z,83.73
2019-01-27T04:18:19.837Z,86.07
2019-01-27T04:20:50.377Z,78.63
2019-01-27T04:23:20.944Z,79.90
2019-01-27T04:25:52.319Z,76.60
2019-01-27T04:28:24.919Z,70.80
2019-01-27T04:30:55.552Z,67.27
2019-01-27T04:33:26.259Z,70.17
2019-01-27T04:35:56.691Z,69.80
2019-01-27T04:38:26.980Z,67.67
2019-01-27T04:40:57.598Z,77.87
2019-01-27T04:43:28.348Z,72.77
2019-01-27T04:45:58.977Z,67.97
2019-01-27T04:48:29.282Z,73.87
2019-01-27T04:50:59.914Z,59.23
2019-01-27T04:53:30.303Z,66.00
2019-01-27T04:56:00.871Z,66.00
2019-01-27T04:58:31.258Z,59.53
2019-01-27T05:01:01.874Z,66.77
2019-01-27T05:03:50.616Z,61.03
2019-01-27T05:06:21.024Z,66.27
2019-01-27T05:08:51.339Z,60.77
2019-01-27T05:11:22.802Z,60.60
2019-01-27T05:13:53.377Z,55.73
2019-01-27T05:16:24.056Z,52.87
2019-01-27T05:18:54.393Z,57.43
2019-01-27T05:21:24.819Z,54.00
2019-01-27T05:23:56.357Z,60.43
2019-01-27T05:26:27.030Z,57.20
2019-01-27T05:29:06.621Z,53.40
2019-01-27T05:31:36.941Z,57.47
2019-01-27T05:34:07.646Z,51.37
2019-01-27T05:36:38.053Z,54.67
2019-01-27T05:39:09.211Z,53.90
2019-01-27T05:41:39.487Z,53.70
2019-01-27T05:44:09.836Z,52.37
2019-01-27T05:46:40.150Z,51.97
2019-01-27T05:49:10.403Z,50.13
2019-01-27T05:51:41.663Z,51.67
2019-01-27T05:54:12.469Z,53.23
2019-01-27T05:56:43.030Z,48.30
2019-01-27T05:59:14.299Z,53.83
2019-01-27T06:01:44.718Z,53.83
2019-01-27T06:04:16.402Z,53.57
2019-01-27T06:06:48.403Z,51.03
2019-01-27T06:09:18.699Z,52.03
2019-01-27T06:11:49.877Z,53.67
2019-01-27T06:14:20.573Z,48.97
2019-01-27T06:16:51.240Z,56.23
2019-01-27T06:19:21.731Z,57.70
2019-01-27T06:21:52.093Z,58.00
2019-01-27T06:24:22.875Z,59.93
2019-01-27T06:26:53.834Z,59.57
2019-01-27T06:29:24.361Z,58.30
2019-01-27T06:31:55.147Z,69.50
2019-01-27T06:34:25.870Z,52.50
2019-01-27T06:36:57.286Z,50.23
2019-01-27T06:39:28.060Z,57.43
2019-01-27T06:41:58.384Z,55.07
2019-01-27T06:44:29.146Z,50.27
2019-01-27T06:46:59.620Z,52.37
2019-01-27T06:49:29.914Z,52.07
2019-01-27T06:52:00.454Z,46.33
2019-01-27T06:54:30.810Z,40.47
2019-01-27T06:57:01.120Z,48.00
2019-01-27T06:59:53.541Z,46.40
2019-01-27T07:02:41.042Z,42.77
2019-01-27T07:05:28.722Z,38.73
2019-01-27T07:08:11.051Z,33.30
2019-01-27T07:11:00.217Z,32.00
2019-01-27T07:14:08.185Z,35.27
2019-01-27T07:17:00.277Z,40.87
2019-01-27T07:19:48.084Z,36.07
2019-01-27T07:22:43.093Z,42.17
2019-01-27T07:25:25.048Z,36.77
2019-01-27T07:28:20.332Z,33.07
2019-01-27T07:31:09.203Z,43.40
2019-01-27T07:34:02.530Z,41.27
2019-01-27T07:36:50.974Z,49.00
2019-01-27T07:39:50.172Z,52.30
2019-01-27T07:42:42.302Z,61.03
2019-01-27T07:45:22.491Z,54.60
2019-01-27T07:48:11.771Z,49.00
2019-01-27T07:50:58.804Z,45.67
2019-01-27T07:53:46.846Z,50.57
2019-01-27T07:56:35.639Z,50.83
2019-01-27T07:59:40.177Z,57.40
2019-01-27T08:02:39.147Z,45.87
2019-01-27T08:05:29.769Z,51.20
2019-01-27T08:08:26.132Z,47.10
2019-01-27T08:11:18.503Z,47.07
2019-01-27T08:14:06.509Z,44.40
2019-01-27T08:16:53.005Z,41.30
2019-01-27T08:19:54.741Z,50.10
2019-01-27T08:23:02.924Z,47.60
2019-01-27T08:25:53.446Z,45.63
2019-01-27T08:28:48.613Z,47.57
2019-01-27T08:31:40.838Z,46.67
2019-01-27T08:34:32.398Z,50.20
2019-01-27T08:37:10.892Z,43.17
2019-01-27T08:40:09.877Z,48.70
2019-01-27T08:42:53.774Z,48.37
2019-01-27T08:45:46.278Z,53.23
2019-01-27T08:48:18.032Z,57.87
2019-01-27T08:50:48.715Z,53.77
2019-01-27T08:53:19.430Z,46.87
2019-01-27T08:55:49.863Z,51.63
2019-01-27T08:58:20.584Z,53.63
2019-01-27T09:01:08.933Z,45.97
2019-01-27T09:03:55.139Z,62.13
2019-01-27T09:06:41.620Z,63.47
2019-01-27T09:09:30.929Z,63.53
2019-01-27T09:12:29.275Z,62.23
2019-01-27T09:15:18.447Z,53.37
2019-01-27T09:18:08.767Z,58.23
2019-01-27T09:20:48.947Z,53.50
2019-01-27T09:23:32.062Z,47.37
2019-01-27T09:26:20.562Z,41.23
2019-01-27T09:29:03.013Z,52.73
2019-01-27T09:31:58.860Z,46.63
2019-01-27T09:34:59.946Z,42.80
2019-01-27T09:37:52.132Z,37.10
2019-01-27T09:40:45.642Z,44.80
2019-01-27T09:43:38.240Z,51.40
2019-01-27T09:46:39.596Z,51.37
2019-01-27T09:49:27.503Z,58.47
2019-01-27T09:52:19.192Z,58.13
2019-01-27T09:55:11.262Z,59.70
2019-01-27T09:58:00.730Z,58.80
2019-01-27T10:00:39.893Z,55.93
2019-01-27T10:03:16.590Z,52.80
2019-01-27T10:06:04.841Z,53.33
2019-01-27T10:08:53.900Z,54.80
2019-01-27T10:11:55.251Z,53.97
2019-01-27T10:14:43.205Z,43.60
2019-01-27T10:17:35.400Z,49.53
2019-01-27T10:20:34.662Z,52.40
2019-01-27T10:23:20.767Z,43.50
2019-01-27T10:26:18.905Z,50.27
2019-01-27T10:29:01.144Z,46.43
2019-01-27T10:31:45.861Z,51.20
2019-01-27T10:34:44.566Z,57.30
2019-01-27T10:37:33.927Z,45.50
2019-01-27T10:40:17.173Z,59.80
2019-01-27T10:42:53.692Z,55.70
2019-01-27T10:45:55.252Z,52.43
2019-01-27T10:48:43.650Z,55.00
2019-01-27T10:51:35.966Z,58.73
2019-01-27T10:54:13.976Z,49.23
2019-01-27T10:57:03.224Z,52.13
2019-01-27T10:59:44.100Z,45.77
2019-01-27T11:02:42.942Z,61.33
2019-01-27T11:05:31.951Z,55.07
2019-01-27T11:08:09.067Z,49.13
2019-01-27T11:10:57.131Z,52.80
2019-01-27T11:13:36.973Z,48.10
2019-01-27T11:16:20.310Z,43.90
2019-01-27T11:19:00.480Z,55.83
2019-01-27T11:21:44.511Z,46.37
2019-01-27T11:24:21.261Z,44.17
2019-01-27T11:27:07.284Z,49.93
2019-01-27T11:30:06.017Z,45.90
2019-01-27T11:32:58.438Z,43.90
2019-01-27T11:35:43.728Z,54.10
2019-01-27T11:38:37.730Z,56.50
2019-01-27T11:41:40.900Z,51.27
2019-01-27T11:44:32.518Z,55.47
2019-01-27T11:47:20.532Z,55.53
2019-01-27T11:49:58.367Z,58.87
2019-01-27T11:52:32.526Z,53.33
2019-01-27T11:55:03.152Z,45.33
2019-01-27T11:57:33.880Z,47.87
2019-01-27T12:00:04.634Z,59.80
2019-01-27T12:02:35.063Z,49.93
2019-01-27T12:05:05.402Z,52.43
2019-01-27T12:07:36.010Z,56.43
2019-01-27T12:10:08.690Z,50.27
2019-01-27T12:12:39.256Z,49.50
2019-01-27T12:15:12.853Z,48.17
2019-01-27T12:17:43.284Z,50.37
2019-01-27T12:20:13.769Z,55.37
2019-01-27T12:22:44.782Z,57.70
2019-01-27T12:25:15.458Z,57.07
2019-01-27T12:27:46.077Z,44.13
2019-01-27T12:30:18.270Z,44.90
2019-01-27T12:32:50.208Z,41.67
2019-01-27T12:35:20.924Z,34.73
2019-01-27T12:37:51.437Z,31.10
2019-01-27T12:40:23.978Z,35.00
2019-01-27T12:42:54.533Z,39.80
2019-01-27T12:45:24.890Z,39.00
2019-01-27T12:47:55.245Z,38.27
2019-01-27T12:50:25.708Z,41.40
2019-01-27T12:52:56.092Z,35.13
2019-01-27T12:55:26.993Z,45.57
2019-01-27T12:57:57.509Z,43.83
2019-01-27T13:00:34.007Z,45.57
2019-01-27T13:03:05.635Z,42.43
2019-01-27T13:05:36.438Z,53.07
2019-01-27T13:08:06.779Z,50.07
2019-01-27T13:10:37.292Z,47.83
2019-01-27T13:13:11.916Z,51.13
2019-01-27T13:15:40.020Z,47.10
2019-01-27T13:18:10.887Z,40.60
2019-01-27T13:20:41.807Z,50.20
2019-01-27T13:23:14.463Z,46.43
2019-01-27T13:25:45.037Z,49.93
2019-01-27T13:28:15.539Z,46.90
2019-01-27T13:30:48.071Z,50.50
2019-01-27T13:33:18.667Z,49.47
2019-01-27T13:35:49.053Z,50.40
2019-01-27T13:38:19.438Z,39.50
2019-01-27T13:40:50.194Z,49.50
2019-01-27T13:43:20.976Z,50.87
2019-01-27T13:45:51.379Z,50.70
2019-01-27T13:48:21.872Z,55.37
2019-01-27T13:50:52.324Z,49.30
2019-01-27T13:53:22.880Z,55.20
2019-01-27T13:55:53.420Z,50.50
2019-01-27T13:58:23.842Z,43.47
2019-01-27T14:00:54.235Z,55.37
2019-01-27T14:03:26.978Z,52.07
2019-01-27T14:05:57.754Z,56.27
2019-01-27T14:08:29.021Z,53.87
2019-01-27T14:10:59.486Z,56.77
2019-01-27T14:13:30.072Z,48.60
2019-01-27T14:16:01.381Z,51.77
2019-01-27T14:18:31.908Z,40.17
2019-01-27T14:21:02.463Z,45.73
2019-01-27T14:23:32.991Z,44.17
2019-01-27T14:26:03.482Z,43.67
2019-01-27T14:28:34.011Z,41.17
2019-01-27T14:31:04.669Z,53.50
2019-01-27T14:33:35.357Z,55.37
2019-01-27T14:36:06.122Z,41.87
2019-01-27T14:38:37.901Z,55.47
2019-01-27T14:41:08.542Z,56.43
2019-01-27T14:43:39.216Z,51.50
2019-01-27T14:46:09.683Z,49.03
2019-01-27T14:48:40.427Z,48.77
2019-01-27T14:51:11.039Z,44.17
2019-01-27T14:53:42.017Z,44.90
2019-01-27T14:56:12.573Z,47.60
2019-01-27T14:58:43.259Z,45.63
2019-01-27T15:01:13.617Z,50.13
2019-01-27T15:03:43.941Z,46.00
2019-01-27T15:06:14.461Z,38.40
2019-01-27T15:08:46.009Z,45.13
2019-01-27T15:11:17.118Z,57.10
2019-01-27T15:13:47.711Z,49.27
2019-01-27T15:16:17.974Z,43.93
2019-01-27T15:18:49.225Z,45.33
2019-01-27T15:21:22.857Z,31.63
2019-01-27T15:23:53.226Z,42.10
2019-01-27T15:26:24.064Z,47.17
2019-01-27T15:28:54.774Z,49.03
2019-01-27T15:31:25.387Z,54.67
2019-01-27T15:33:56.091Z,44.27
2019-01-27T15:36:26.862Z,46.03
2019-01-27T15:38:57.433Z,39.57
2019-01-27T15:41:28.223Z,43.63
2019-01-27T15:43:59.067Z,37.37
2019-01-27T15:46:29.545Z,34.77
2019-01-27T15:48:59.877Z,38.50
2019-01-27T15:51:30.660Z,33.33
2019-01-27T15:54:00.954Z,38.63
2019-01-27T15:56:31.614Z,28.40
2019-01-27T15:59:01.875Z,35.33
2019-01-27T16:01:32.451Z,35.93
2019-01-27T16:04:03.549Z,36.40
2019-01-27T16:06:35.245Z,41.80
2019-01-27T16:09:07.479Z,36.10
2019-01-27T16:11:39.272Z,38.30
2019-01-27T16:14:10.107Z,30.87
2019-01-27T16:16:40.653Z,37.00
2019-01-27T16:19:11.272Z,37.50
2019-01-27T16:21:41.970Z,36.40
2019-01-27T16:24:37.562Z,37.30
2019-01-27T16:27:08.201Z,35.47
2019-01-27T16:29:59.994Z,37.57
2019-01-27T16:32:36.156Z,37.47
2019-01-27T16:35:11.820Z,35.60
2019-01-27T16:37:42.256Z,35.93
2019-01-27T16:40:14.963Z,32.83
2019-01-27T16:42:45.574Z,41.43
2019-01-27T16:45:16.556Z,43.60
2019-01-27T16:47:47.449Z,41.50
2019-01-27T16:50:18.109Z,40.93
2019-01-27T16:52:48.674Z,39.93
2019-01-27T16:55:19.242Z,39.10
2019-01-27T16:57:50.614Z,35.77
2019-01-27T17:00:24.473Z,36.00
2019-01-27T17:02:55.064Z,33.83
2019-01-27T17:05:26.131Z,38.10
2019-01-27T17:07:57.912Z,41.17
2019-01-27T17:10:29.686Z,36.80
2019-01-27T17:13:00.436Z,36.17
2019-01-27T17:15:31.412Z,29.23
2019-01-27T17:18:05.378Z,39.83
2019-01-27T17:20:36.306Z,38.90
2019-01-27T17:23:07.404Z,37.17
2019-01-27T17:25:37.824Z,48.20
2019-01-27T17:28:09.350Z,40.70
2019-01-27T17:30:40.171Z,41.93
2019-01-27T17:33:10.963Z,39.27
2019-01-27T17:35:41.939Z,38.77
2019-01-27T17:38:12.570Z,41.57
2019-01-27T17:40:43.840Z,33.17
2019-01-27T17:43:14.936Z,40.03
2019-01-27T17:45:45.697Z,33.97
2019-01-27T17:48:17.573Z,33.73
2019-01-27T17:50:48.647Z,42.20
2019-01-27T17:53:19.576Z,28.13
2019-01-27T17:55:53.951Z,49.83
2019-01-27T17:58:54.566Z,47.13
2019-01-27T18:02:04.154Z,48.93
2019-01-27T18:04:45.626Z,41.60
2019-01-27T18:07:48.075Z,44.23
2019-01-27T18:10:42.304Z,47.70
2019-01-27T18:13:20.235Z,50.33
2019-01-27T18:15:52.771Z,48.90
2019-01-27T18:18:23.676Z,49.00
2019-01-27T18:20:56.256Z,46.37
2019-01-27T18:23:29.547Z,40.67
2019-01-27T18:26:00.047Z,44.43
2019-01-27T18:28:31.982Z,44.10
2019-01-27T18:31:02.844Z,51.73
2019-01-27T18:33:36.128Z,45.83
2019-01-27T18:36:08.144Z,40.57
2019-01-27T18:38:41.669Z,45.97
2019-01-27T18:41:12.532Z,41.17
2019-01-27T18:43:44.749Z,51.33
2019-01-27T18:46:15.493Z,53.63
2019-01-27T18:48:46.107Z,54.40
2019-01-27T18:51:17.272Z,46.23
2019-01-27T18:53:59.825Z,53.17
2019-01-27T18:57:06.388Z,52.50
2019-01-27T18:59:55.806Z,43.70
2019-01-27T19:02:35.598Z,50.13
2019-01-27T19:05:22.636Z,51.10
2019-01-27T19:08:11.238Z,54.43
2019-01-27T19:11:00.830Z,46.57
2019-01-27T19:13:56.076Z,41.63
2019-01-27T19:16:45.540Z,53.13
2019-01-27T19:19:45.403Z,45.93
2019-01-27T19:22:40.680Z,48.20
2019-01-27T19:25:28.540Z,48.77
2019-01-27T19:28:08.779Z,55.90
2019-01-27T19:31:03.217Z,51.70
2019-01-27T19:34:12.147Z,59.53
2019-01-27T19:37:10.365Z,60.33
2019-01-27T19:39:55.414Z,63.93
2019-01-27T19:43:03.639Z,55.97
2019-01-27T19:45:58.744Z,61.93
2019-01-27T19:48:41.669Z,56.60
2019-01-27T19:51:29.682Z,62.17
2019-01-27T19:54:25.560Z,57.07
2019-01-27T19:57:18.477Z,57.63
2019-01-27T19:59:55.850Z,49.40
2019-01-27T20:02:54.573Z,59.50
2019-01-27T20:05:34.311Z,56.80
2019-01-27T20:08:23.924Z,57.23
2019-01-27T20:11:03.062Z,60.33
2019-01-27T20:13:51.225Z,56.77
2019-01-27T20:16:39.201Z,62.83
2019-01-27T20:19:32.172Z,59.70
2019-01-27T20:22:21.968Z,62.23
2019-01-27T20:25:11.232Z,64.67
2019-01-27T20:27:57.513Z,57.37
2019-01-27T20:30:47.008Z,61.30
2019-01-27T20:33:29.755Z,57.43
2019-01-27T20:36:12.056Z,67.30
2019-01-27T20:38:54.161Z,71.23
2019-01-27T20:41:55.883Z,66.83
2019-01-27T20:44:45.734Z,72.67
2019-01-27T20:47:48.146Z,66.77
2019-01-27T20:50:41.465Z,69.87
2019-01-27T20:53:36.944Z,64.60
2019-01-27T20:56:25.466Z,76.60
2019-01-27T20:59:24.172Z,80.43
2019-01-27T21:02:13.678Z,69.33
2019-01-27T21:04:56.561Z,76.37
2019-01-27T21:07:48.456Z,78.20
2019-01-27T21:10:56.570Z,75.10
2019-01-27T21:13:55.105Z,80.10
2019-01-27T21:17:05.707Z,72.57
2019-01-27T21:19:42.125Z,75.50
2019-01-27T21:22:15.183Z,65.37
2019-01-27T21:24:46.124Z,59.60
2019-01-27T21:27:16.527Z,70.13
2019-01-27T21:29:47.210Z,64.60
2019-01-27T21:32:18.591Z,57.00
2019-01-27T21:34:49.113Z,69.47
2019-01-27T21:37:20.025Z,58.23
2019-01-27T21:39:50.806Z,67.73
2019-01-27T21:42:21.342Z,60.43
2019-01-27T21:44:52.641Z,67.90
2019-01-27T21:47:23.108Z,63.27
2019-01-27T21:49:53.544Z,56.63
2019-01-27T21:52:23.923Z,54.97
2019-01-27T21:54:54.394Z,66.57
2019-01-27T21:57:25.894Z,68.03
2019-01-27T21:59:56.314Z,71.33
2019-01-27T22:02:27.314Z,70.90
2019-01-27T22:04:57.914Z,65.13
2019-01-27T22:07:28.343Z,75.50
2019-01-27T22:09:58.744Z,70.57
2019-01-27T22:12:29.338Z,68.73
2019-01-27T22:15:00.035Z,77.47
2019-01-27T22:17:30.500Z,71.13
2019-01-27T22:20:01.122Z,46.07
2019-01-27T22:22:33.082Z,67.47
2019-01-27T22:25:03.469Z,72.50
2019-01-27T22:27:33.851Z,67.67
2019-01-27T22:30:05.713Z,67.63
2019-01-27T22:32:36.235Z,74.10
2019-01-27T22:35:06.970Z,75.37
2019-01-27T22:37:37.601Z,66.80
2019-01-27T22:40:08.868Z,73.63
2019-01-27T22:42:39.636Z,78.67
2019-01-27T22:45:11.082Z,70.13
2019-01-27T22:47:41.554Z,72.63
2019-01-27T22:50:15.219Z,63.17
2019-01-27T22:52:45.553Z,69.60
2019-01-27T22:55:15.832Z,69.07
2019-01-27T22:57:46.298Z,60.97
2019-01-27T23:00:55.267Z,59.97
2019-01-27T23:03:26.424Z,63.80
2019-01-27T23:05:57.120Z,62.97
2019-01-27T23:08:27.836Z,70.43
2019-01-27T23:10:58.334Z,75.00
2019-01-27T23:13:28.938Z,72.23
2019-01-27T23:15:59.667Z,64.90
2019-01-27T23:18:30.072Z,72.30
2019-01-27T23:21:01.481Z,74.40
2019-01-27T23:23:33.224Z,65.27
2019-01-27T23:26:03.702Z,70.27
2019-01-27T23:28:34.256Z,75.53
2019-01-27T23:31:04.860Z,70.87
2019-01-27T23:33:35.304Z,72.27
2019-01-27T23:36:05.661Z,68.07
2019-01-27T23:38:36.226Z,69.33
2019-01-27T23:41:06.637Z,60.40
2019-01-27T23:43:37.238Z,73.53
2019-01-27T23:46:07.845Z,69.60
2019-01-27T23:48:38.708Z,78.30
2019-01-27T23:51:09.120Z,74.57
2019-01-27T23:53:39.648Z,71.30
2019-01-27T23:56:10.102Z,68.47
2019-01-27T23:58:40.461Z,74.40
